< < Back
Terminal Aerodrome Forecast


Current Version              Previous Versions:   1  2  3  4  5  6  7  8  9  

Terminal Aerodrome Forecast

833
FTUS42 KGSP 242300 RRA
TAFCLT
TAF
KCLT 242341Z 2500/2524 16007KT P6SM SCT060 SCT250
     FM251000 15005KT P6SM BKN010 OVC060
     FM251100 15006KT P6SM BKN005 OVC010
     FM251300 16008KT P6SM BKN010 OVC027
     FM251500 21011G20KT P6SM SCT027 OVC045 PROB30 2515/2521 4SM
      TSRA OVC014CB
     FM252100 24009KT P6SM SCT070=

Latest METAR

326
SAUS70 KWBC 250300 RRA
MTRCLT
METAR KCLT 250252Z 15004KT 10SM FEW250 17/07 A2999 RMK AO2 SLP152
T01720067 53003


USA.gov is the U.S. government's official web portal to all federal, state and local government web resources and services.